This is the latest recevied weather packets stored in our database for station/object DH1NAI-6. If no packets are shown the sender has not sent any weather packets the latest 10 day(s).
| Time | Temp. | Humidity | Pressure | Rain* | Wind** | Luminosity | Snow |
|---|---|---|---|---|---|---|---|
| 1778263232 | 8.33° C | 94% | 1015.4 hPa | 0 mm | - | 7 W/m² | - |
| 1778262624 | 8.33° C | 93% | 1015.5 hPa | 0 mm | - | 8 W/m² | - |
| 1778262016 | 8.89° C | 92% | 1015.5 hPa | 0 mm | - | 9 W/m² | - |
| 1778261408 | 9.44° C | 91% | 1015.4 hPa | 0 mm | - | 11 W/m² | - |
| 1778260800 | 10° C | 90% | 1015.4 hPa | 0 mm | - | 21 W/m² | - |
| 1778260192 | 10.56° C | 88% | 1015.3 hPa | 0 mm | - | 31 W/m² | - |
| 1778259585 | 10.56° C | 88% | 1015.3 hPa | 0 mm | - | 41 W/m² | - |
| 1778258972 | 10° C | 88% | 1015.3 hPa | 0 mm | - | 35 W/m² | - |
| 1778258369 | 11.11° C | 85% | 1015.5 hPa | 0 mm | - | 69 W/m² | - |
| 1778257760 | 10° C | 88% | 1015.1 hPa | 0 mm | - | 83 W/m² | - |
| 1778257136 | 10° C | 89% | 1015.2 hPa | 0 mm | - | 27 W/m² | - |
| 1778256512 | 10° C | 88% | 1015.3 hPa | 0 mm | - | 25 W/m² | - |
| 1778255904 | 10.56° C | 86% | 1015.2 hPa | 0 mm | - | 36 W/m² | - |
| 1778255297 | 10.56° C | 86% | 1015.2 hPa | 0 mm | - | 63 W/m² | - |
| 1778254688 | 10° C | 87% | 1015 hPa | 0 mm | - | 49 W/m² | - |
| 1778254081 | 10.56° C | 87% | 1015.4 hPa | 0 mm | - | 47 W/m² | - |
| 1778253472 | 10.56° C | 86% | 1015.1 hPa | 0 mm | - | 44 W/m² | - |
| 1778252865 | 10.56° C | 86% | 1015.3 hPa | 0 mm | - | 58 W/m² | - |
| 1778252256 | 10° C | 86% | 1015.3 hPa | 0 mm | - | 65 W/m² | - |
| 1778251649 | 10° C | 86% | 1015.4 hPa | 0 mm | - | 63 W/m² | - |
| 1778251040 | 10.56° C | 86% | 1015.3 hPa | 0 mm | - | 63 W/m² | - |
| 1778250432 | 10° C | 86% | 1015.6 hPa | 0 mm | - | 78 W/m² | - |
| 1778249824 | 10° C | 88% | 1015.6 hPa | 0 mm | - | 74 W/m² | - |
| 1778249217 | 10° C | 88% | 1015.6 hPa | 0 mm | - | 61 W/m² | - |
| 1778248608 | 9.44° C | 87% | 1015.6 hPa | 0 mm | - | 42 W/m² | - |
* Rain latest hour (hover to see other rain measurements)
** Current wind speed in m/s (hover to see current wind gust speed)